createdAt,value
2018-09-06T00:00:15.664Z,100150.46
2018-09-06T00:05:19.255Z,100155.33
2018-09-06T00:10:22.856Z,100154.33
2018-09-06T00:15:26.574Z,100148.20
2018-09-06T00:20:30.485Z,100152.45
2018-09-06T00:25:34.255Z,100154.12
2018-09-06T00:30:37.859Z,100149.98
2018-09-06T00:35:42.310Z,100150.72
2018-09-06T00:40:45.916Z,100154.31
2018-09-06T00:45:49.474Z,100156.66
2018-09-06T00:50:53.005Z,100153.50
2018-09-06T00:55:56.510Z,100144.59
2018-09-06T01:01:00.127Z,100146.25
2018-09-06T01:06:03.974Z,100145.00
2018-09-06T01:11:07.626Z,100138.44
2018-09-06T01:16:11.150Z,100132.27
2018-09-06T01:21:14.702Z,100134.28
2018-09-06T01:26:18.297Z,100131.17
2018-09-06T01:31:21.895Z,100121.26
2018-09-06T01:36:30.689Z,100120.31
2018-09-06T01:41:34.337Z,100115.27
2018-09-06T01:46:38.854Z,100109.16
2018-09-06T01:51:42.467Z,100102.69
2018-09-06T01:56:45.951Z,100102.59
2018-09-06T02:01:49.488Z,100092.97
2018-09-06T02:06:52.945Z,100097.91
2018-09-06T02:11:56.402Z,100090.83
2018-09-06T02:16:59.959Z,100084.50
2018-09-06T02:22:03.496Z,100074.22
2018-09-06T02:27:07.068Z,100073.95
2018-09-06T02:32:10.612Z,100063.68
2018-09-06T02:37:14.113Z,100065.39
2018-09-06T02:42:17.665Z,100062.95
2018-09-06T02:47:21.251Z,100065.86
2018-09-06T02:52:25.641Z,100052.06
2018-09-06T02:57:29.195Z,100052.42
2018-09-06T03:02:32.740Z,100050.51
2018-09-06T03:07:39.205Z,100048.98
2018-09-06T03:12:42.702Z,100053.97
2018-09-06T03:17:46.227Z,100050.20
2018-09-06T03:22:49.813Z,100043.02
2018-09-06T03:27:53.354Z,100039.54
2018-09-06T03:32:58.319Z,100046.16
2018-09-06T03:38:01.869Z,100041.15
2018-09-06T03:43:05.381Z,100040.39
2018-09-06T03:48:08.908Z,100043.66
2018-09-06T03:53:19.007Z,100038.20
2018-09-06T03:58:22.566Z,100038.44
2018-09-06T04:03:26.118Z,100036.69
2018-09-06T04:08:29.569Z,100045.03
2018-09-06T04:13:33.191Z,100051.94
2018-09-06T04:18:36.828Z,100043.09
2018-09-06T04:23:40.325Z,100038.85
2018-09-06T04:28:43.832Z,100041.09
2018-09-06T04:33:47.390Z,100042.68
2018-09-06T04:38:50.898Z,100037.23
2018-09-06T04:43:54.747Z,100039.64
2018-09-06T04:48:58.160Z,100041.42
2018-09-06T04:54:01.681Z,100038.46
2018-09-06T04:59:05.229Z,100033.25
2018-09-06T05:04:08.919Z,100033.06
2018-09-06T05:09:12.399Z,100033.31
2018-09-06T05:14:17.469Z,100030.20
2018-09-06T05:19:20.943Z,100029.96
2018-09-06T05:24:24.434Z,100035.47
2018-09-06T05:29:27.978Z,100035.80
2018-09-06T05:34:31.450Z,100032.32
2018-09-06T05:39:35.042Z,100032.83
2018-09-06T05:44:38.538Z,100029.97
2018-09-06T05:49:42.033Z,100025.86
2018-09-06T05:54:45.550Z,100027.30
2018-09-06T05:59:49.053Z,100026.28
2018-09-06T06:04:52.604Z,100030.02
2018-09-06T06:09:56.093Z,100023.85
2018-09-06T06:14:59.621Z,100031.13
2018-09-06T06:20:04.574Z,100029.09
2018-09-06T06:25:08.075Z,100027.36
2018-09-06T06:30:11.606Z,100016.46
2018-09-06T06:35:15.025Z,100016.17
2018-09-06T06:40:18.545Z,100010.37
2018-09-06T06:45:22.066Z,100005.64
2018-09-06T06:50:25.755Z,100007.17
2018-09-06T06:55:29.266Z,100001.94
2018-09-06T07:00:36.956Z,100002.64
2018-09-06T07:05:41.471Z,100000.56
2018-09-06T07:10:44.978Z,99999.44
2018-09-06T07:15:48.525Z,99997.67
2018-09-06T07:20:52.144Z,99994.41
2018-09-06T07:25:55.718Z,99993.34
2018-09-06T07:30:59.215Z,99990.71
2018-09-06T07:36:02.768Z,99987.45
2018-09-06T07:41:07.366Z,99988.36
2018-09-06T07:46:10.864Z,99979.72
2018-09-06T07:51:15.226Z,99971.56
2018-09-06T07:56:18.776Z,99974.30
2018-09-06T08:01:23.223Z,99966.81
2018-09-06T08:06:26.826Z,99960.34
2018-09-06T08:11:30.526Z,99963.48
2018-09-06T08:16:34.433Z,99962.92
2018-09-06T08:21:37.958Z,99954.06
2018-09-06T08:26:41.487Z,99957.06
2018-09-06T08:31:45.011Z,99954.52
2018-09-06T08:36:48.601Z,99955.44
2018-09-06T08:41:52.093Z,99952.19
2018-09-06T08:46:55.618Z,99947.59
2018-09-06T08:51:59.241Z,99951.94
2018-09-06T08:57:02.796Z,99942.18
2018-09-06T09:02:12.580Z,99940.55
2018-09-06T09:07:16.088Z,99934.81
2018-09-06T09:12:19.685Z,99929.92
2018-09-06T09:17:23.227Z,99921.19
2018-09-06T09:22:26.888Z,99916.47
2018-09-06T09:27:36.868Z,99912.74
2018-09-06T09:32:40.350Z,99901.73
2018-09-06T09:37:43.880Z,99902.63
2018-09-06T09:42:47.378Z,99898.81
2018-09-06T09:47:50.925Z,99891.52
2018-09-06T09:52:54.458Z,99893.80
2018-09-06T09:57:57.942Z,99887.14
2018-09-06T10:03:06.865Z,99888.19
2018-09-06T10:08:15.486Z,99882.81
2018-09-06T10:13:19.167Z,99874.23
2018-09-06T10:18:22.670Z,99873.58
2018-09-06T10:23:26.255Z,99870.25
2018-09-06T10:28:29.893Z,99867.64
2018-09-06T10:33:33.333Z,99856.37
2018-09-06T10:38:36.795Z,99853.38
2018-09-06T10:43:40.420Z,99854.11
2018-09-06T10:48:44.044Z,99839.51
2018-09-06T10:53:47.593Z,99832.73
2018-09-06T10:58:51.935Z,99821.59
2018-09-06T11:03:56.926Z,99820.45
2018-09-06T11:09:00.443Z,99813.98
2018-09-06T11:14:03.973Z,99807.42
2018-09-06T11:19:07.558Z,99810.72
2018-09-06T11:24:11.066Z,99797.33
2018-09-06T11:29:14.611Z,99792.05
2018-09-06T11:34:18.223Z,99795.11
2018-09-06T11:39:21.772Z,99781.36
2018-09-06T11:44:25.304Z,99778.58
2018-09-06T11:49:28.882Z,99776.14
2018-09-06T11:54:32.690Z,99766.67
2018-09-06T11:59:36.302Z,99754.74
2018-09-06T12:04:39.887Z,99745.00
2018-09-06T12:09:43.478Z,99744.35
2018-09-06T12:14:47.123Z,99736.48
2018-09-06T12:19:50.623Z,99735.56
2018-09-06T12:24:54.617Z,99727.66
2018-09-06T12:29:58.290Z,99727.88
2018-09-06T12:35:02.120Z,99725.88
2018-09-06T12:40:07.598Z,99712.94
2018-09-06T12:45:11.206Z,99707.58
2018-09-06T12:50:14.791Z,99702.55
2018-09-06T12:55:18.301Z,99687.31
2018-09-06T13:00:22.137Z,99682.70
2018-09-06T13:05:25.792Z,99677.44
2018-09-06T13:10:29.402Z,99668.51
2018-09-06T13:15:32.951Z,99658.20
2018-09-06T13:20:36.520Z,99650.52
2018-09-06T13:25:40.159Z,99645.30
2018-09-06T13:30:43.995Z,99637.98
2018-09-06T13:35:47.493Z,99636.84
2018-09-06T13:40:51.038Z,99633.83
2018-09-06T13:45:54.537Z,99625.48
2018-09-06T13:50:58.034Z,99620.11
2018-09-06T13:56:01.706Z,99611.20
2018-09-06T14:01:05.270Z,99609.89
2018-09-06T14:06:08.868Z,99605.16
2018-09-06T14:11:12.587Z,99602.88
2018-09-06T14:16:16.182Z,99600.03
2018-09-06T14:21:19.752Z,99587.02
2018-09-06T14:26:23.278Z,99584.80
2018-09-06T14:31:26.757Z,99575.86
2018-09-06T14:36:30.305Z,99570.19
2018-09-06T14:41:33.884Z,99566.11
2018-09-06T14:46:37.380Z,99564.17
2018-09-06T14:51:40.897Z,99552.83
2018-09-06T14:56:44.442Z,99551.77
2018-09-06T15:01:48.179Z,99541.70
2018-09-06T15:06:51.932Z,99538.76
2018-09-06T15:11:55.525Z,99537.09
2018-09-06T15:16:59.079Z,99534.05
2018-09-06T15:22:02.636Z,99532.59
2018-09-06T15:27:06.584Z,99530.82
2018-09-06T15:32:12.698Z,99526.32
2018-09-06T15:37:16.233Z,99528.91
2018-09-06T15:42:19.729Z,99525.75
2018-09-06T15:47:23.601Z,99518.19
2018-09-06T15:52:27.166Z,99516.29
2018-09-06T15:57:30.767Z,99508.96
2018-09-06T16:02:34.352Z,99513.68
2018-09-06T16:07:37.947Z,99510.28
2018-09-06T16:12:41.432Z,99507.07
2018-09-06T16:17:44.953Z,99506.56
2018-09-06T16:22:48.447Z,99505.08
2018-09-06T16:27:52.066Z,99505.94
2018-09-06T16:32:55.645Z,99506.73
2018-09-06T16:37:59.242Z,99511.01
2018-09-06T16:43:02.931Z,99514.00
2018-09-06T16:48:06.537Z,99513.84
2018-09-06T16:53:10.065Z,99507.91
2018-09-06T16:58:13.734Z,99504.53
2018-09-06T17:03:17.294Z,99502.59
2018-09-06T17:08:20.981Z,99496.20
2018-09-06T17:13:24.673Z,99493.23
2018-09-06T17:18:28.304Z,99487.35
2018-09-06T17:23:31.983Z,99486.44
2018-09-06T17:28:35.691Z,99483.29
2018-09-06T17:33:39.259Z,99487.08
2018-09-06T17:38:42.853Z,99489.05
2018-09-06T17:43:46.548Z,99496.38
2018-09-06T17:48:50.251Z,99511.81
2018-09-06T17:53:53.934Z,99507.71
2018-09-06T17:58:58.438Z,99507.50
2018-09-06T18:04:02.525Z,99512.09
2018-09-06T18:09:09.465Z,99514.05
2018-09-06T18:14:13.166Z,99511.50
2018-09-06T18:19:16.822Z,99516.75
2018-09-06T18:24:20.441Z,99515.14
2018-09-06T18:29:23.962Z,99517.15
2018-09-06T18:34:27.504Z,99526.14
2018-09-06T18:39:31.010Z,99531.06
2018-09-06T18:44:35.440Z,99538.67
2018-09-06T18:49:39.010Z,99536.50
2018-09-06T18:54:42.646Z,99530.46
2018-09-06T18:59:46.217Z,99529.70
2018-09-06T19:04:49.948Z,99529.03
2018-09-06T19:09:53.438Z,99522.30
2018-09-06T19:14:57.037Z,99526.36
2018-09-06T19:20:00.615Z,99524.84
2018-09-06T19:25:05.466Z,99523.61
2018-09-06T19:30:09.329Z,99526.07
2018-09-06T19:35:12.863Z,99525.26
2018-09-06T19:40:16.437Z,99526.20
2018-09-06T19:45:19.981Z,99522.44
2018-09-06T19:51:26.251Z,99518.88
2018-09-06T19:56:29.745Z,99522.84
2018-09-06T20:01:33.226Z,99516.14
2018-09-06T20:06:36.883Z,99518.30
2018-09-06T20:11:40.374Z,99513.10
2018-09-06T20:16:43.920Z,99513.05
2018-09-06T20:21:47.429Z,99508.66
2018-09-06T20:26:50.898Z,99510.78
2018-09-06T20:31:54.453Z,99505.78
2018-09-06T20:36:57.997Z,99504.98
2018-09-06T20:42:01.552Z,99500.45
2018-09-06T20:47:05.356Z,99493.43
2018-09-06T20:52:08.895Z,99489.66
2018-09-06T20:57:12.996Z,99484.80
2018-09-06T21:02:22.073Z,99484.44
2018-09-06T21:07:26.734Z,99486.08
2018-09-06T21:12:30.407Z,99486.67
2018-09-06T21:17:33.990Z,99483.37
2018-09-06T21:22:37.454Z,99479.13
2018-09-06T21:27:41.036Z,99476.68
2018-09-06T21:32:44.622Z,99483.23
2018-09-06T21:37:48.320Z,99494.20
2018-09-06T21:42:52.055Z,99495.99
2018-09-06T21:47:55.872Z,99495.22
2018-09-06T21:52:59.465Z,99493.35
2018-09-06T21:58:03.071Z,99502.31
2018-09-06T22:03:11.940Z,99494.89
2018-09-06T22:08:15.983Z,99491.13
2018-09-06T22:13:19.494Z,99486.00
2018-09-06T22:18:23.015Z,99478.47
2018-09-06T22:23:26.592Z,99484.94
2018-09-06T22:28:30.129Z,99486.27
2018-09-06T22:33:33.704Z,99483.88
2018-09-06T22:38:37.811Z,99487.71
2018-09-06T22:43:41.441Z,99487.15
2018-09-06T22:48:44.995Z,99486.59
2018-09-06T22:53:48.481Z,99475.24
2018-09-06T22:58:52.060Z,99474.46
2018-09-06T23:03:56.372Z,99473.91
2018-09-06T23:09:00.009Z,99477.49
2018-09-06T23:14:04.308Z,99468.58
2018-09-06T23:19:07.869Z,99472.89
2018-09-06T23:24:13.002Z,99469.70
2018-09-06T23:29:16.578Z,99470.24
2018-09-06T23:34:20.082Z,99480.27
2018-09-06T23:39:24.421Z,99480.06
2018-09-06T23:44:27.950Z,99477.94
2018-09-06T23:49:31.396Z,99474.70
2018-09-06T23:54:34.896Z,99477.97
2018-09-06T23:59:38.426Z,99478.78
